Missouri River (Missouri), Jefferson City (06910450)

StateMissouriLatestUnknown (47600 cfs)
RiverMissouri RiverRatingObservedEstimated
Updated2021-03-03 14:45 (7 minutes ago)Flood - The river is flooding. Obstacles can be treacherous or deadly. The river should be avoided at this stage for casual trips and definitely for the inexperienced. Trips should be attempted only with protective gear and equipment.Flood(none)(none)
Discharge47600 cfs (median: 60300 cfs)High - The river is high and potentially dangerous, especially for the young and / or inexperienced. Normal stream obstacles are sometimes difficult to navigate. Extended distances can be attempted, but canoe travel may not be advisable.High(none)(none)
Height7.36 feetGood - Conditions are ideal for a canoe or kayak. Boats typically will drag on fewer than one-quarter of riffles, if at all, and portages are unnecessary or rare. Normal float lengths can be attempted without a problem.Good(none)(none)
TrendFalling (falling over 24 hours)Low - River is low but can still be floated. Some riffles are okay but most come with significant dragging and might need a portage. Float lengths should be reduced to accommodate low flow, dragging, and portages.Low(none)(none)
USGSExternal icon USGS Site (External icon Google Maps)Poor - River is too low to float comfortably. Most or all riffles will drag or must be portaged and some obstacles (such as slick shelf rock) cause undue problems. Avoid the river at this stage for casual paddling trips.Poor(none)(none)

Trending Data

Plot Image

Trips for Missouri River (Missouri), Jefferson City (06910450)

DateStartEndDistanceConditionDischargeHeightFishingDetails

A total of 0 rows are displayed.

Condition Descriptions

Fishing Conditions

Fish Species

Notes

Classic Trip List

The classic River Trips application is still available for use. It is updated with the new system using a data retrofit. It is no longer maintained. The original River Trips application is no longer updated (as of 1 Dec 2016) but can be checked for errors or for the condition of the data before it was converted to the new system.

Gauge Data Table

ObservationHeightDischargeMaximum
Discharge
Minimum
Discharge
Mean
Discharge
P05P10P20P25P50
(Median)
P75P80P90P95
2021-03-03 14:45 7.36 47600 84900 (2020) 38700 (2015) 60600 41200 43400 60300 77000 80700
2021-03-03 13:45 7.37 47700 84900 (2020) 38700 (2015) 60600 41200 43400 60300 77000 80700
2021-03-03 12:45 7.43 48000 84900 (2020) 38700 (2015) 60600 41200 43400 60300 77000 80700
2021-03-03 11:45 7.42 47900 84900 (2020) 38700 (2015) 60600 41200 43400 60300 77000 80700
2021-03-03 10:45 7.45 48100 84900 (2020) 38700 (2015) 60600 41200 43400 60300 77000 80700
2021-03-03 09:45 7.43 48000 84900 (2020) 38700 (2015) 60600 41200 43400 60300 77000 80700
2021-03-03 08:45 7.46 48100 84900 (2020) 38700 (2015) 60600 41200 43400 60300 77000 80700
2021-03-03 07:45 7.45 48100 84900 (2020) 38700 (2015) 60600 41200 43400 60300 77000 80700
2021-03-03 06:45 7.49 48300 84900 (2020) 38700 (2015) 60600 41200 43400 60300 77000 80700
2021-03-03 05:45 7.49 48300 84900 (2020) 38700 (2015) 60600 41200 43400 60300 77000 80700
2021-03-03 04:45 7.51 48400 84900 (2020) 38700 (2015) 60600 41200 43400 60300 77000 80700
2021-03-03 03:45 7.50 48300 84900 (2020) 38700 (2015) 60600 41200 43400 60300 77000 80700
2021-03-03 02:45 7.51 48400 84900 (2020) 38700 (2015) 60600 41200 43400 60300 77000 80700
2021-03-03 01:45 7.52 48400 84900 (2020) 38700 (2015) 60600 41200 43400 60300 77000 80700
2021-03-03 00:45 7.53 48500 84900 (2020) 38700 (2015) 60600 41200 43400 60300 77000 80700
2021-03-02 23:45 7.51 48400 85500 (2020) 40500 (2015) 62500 42200 43700 61500 82400 83900
2021-03-02 22:45 7.50 48300 85500 (2020) 40500 (2015) 62500 42200 43700 61500 82400 83900
2021-03-02 21:45 7.54 48500 85500 (2020) 40500 (2015) 62500 42200 43700 61500 82400 83900
2021-03-02 20:45 7.50 48300 85500 (2020) 40500 (2015) 62500 42200 43700 61500 82400 83900
2021-03-02 19:45 7.50 48300 85500 (2020) 40500 (2015) 62500 42200 43700 61500 82400 83900
2021-03-02 18:45 7.49 48300 85500 (2020) 40500 (2015) 62500 42200 43700 61500 82400 83900
2021-03-02 17:45 7.49 48300 85500 (2020) 40500 (2015) 62500 42200 43700 61500 82400 83900
2021-03-02 16:45 7.47 48200 85500 (2020) 40500 (2015) 62500 42200 43700 61500 82400 83900
2021-03-02 15:45 7.45 48100 85500 (2020) 40500 (2015) 62500 42200 43700 61500 82400 83900
2021-03-02 14:45 7.42 47900 85500 (2020) 40500 (2015) 62500 42200 43700 61500 82400 83900
2021-03-02 13:45 7.40 47800 85500 (2020) 40500 (2015) 62500 42200 43700 61500 82400 83900
2021-03-02 12:45 7.40 47800 85500 (2020) 40500 (2015) 62500 42200 43700 61500 82400 83900
2021-03-02 11:45 7.40 47800 85500 (2020) 40500 (2015) 62500 42200 43700 61500 82400 83900
2021-03-02 10:45 7.39 47800 85500 (2020) 40500 (2015) 62500 42200 43700 61500 82400 83900
2021-03-02 09:45 7.38 47700 85500 (2020) 40500 (2015) 62500 42200 43700 61500 82400 83900
2021-03-02 08:45 7.39 47800 85500 (2020) 40500 (2015) 62500 42200 43700 61500 82400 83900
2021-03-02 07:45 7.38 47700 85500 (2020) 40500 (2015) 62500 42200 43700 61500 82400 83900
2021-03-02 06:45 7.36 47600 85500 (2020) 40500 (2015) 62500 42200 43700 61500 82400 83900
2021-03-02 05:45 7.33 47500 85500 (2020) 40500 (2015) 62500 42200 43700 61500 82400 83900
2021-03-02 04:45 7.31 47400 85500 (2020) 40500 (2015) 62500 42200 43700 61500 82400 83900
2021-03-02 03:45 7.32 47400 85500 (2020) 40500 (2015) 62500 42200 43700 61500 82400 83900
2021-03-02 02:45 7.28 47200 85500 (2020) 40500 (2015) 62500 42200 43700 61500 82400 83900
2021-03-02 01:45 7.27 47200 85500 (2020) 40500 (2015) 62500 42200 43700 61500 82400 83900
2021-03-02 00:45 7.22 46900 85500 (2020) 40500 (2015) 62500 42200 43700 61500 82400 83900
2021-03-01 23:45 7.22 46900 94000 (2019) 41500 (2015) 65300 43000 44400 62300 88500 91100
2021-03-01 22:45 7.23 47000 94000 (2019) 41500 (2015) 65300 43000 44400 62300 88500 91100
2021-03-01 21:45 7.21 46900 94000 (2019) 41500 (2015) 65300 43000 44400 62300 88500 91100
2021-03-01 20:45 7.18 46800 94000 (2019) 41500 (2015) 65300 43000 44400 62300 88500 91100
2021-03-01 19:45 7.18 46800 94000 (2019) 41500 (2015) 65300 43000 44400 62300 88500 91100
2021-03-01 18:45 7.15 46600 94000 (2019) 41500 (2015) 65300 43000 44400 62300 88500 91100
2021-03-01 17:45 7.15 46600 94000 (2019) 41500 (2015) 65300 43000 44400 62300 88500 91100
2021-03-01 16:45 7.11 46400 94000 (2019) 41500 (2015) 65300 43000 44400 62300 88500 91100
2021-03-01 15:45 7.10 46400 94000 (2019) 41500 (2015) 65300 43000 44400 62300 88500 91100
2021-03-01 14:45 7.09 46300 94000 (2019) 41500 (2015) 65300 43000 44400 62300 88500 91100
2021-03-01 13:45 7.05 46100 94000 (2019) 41500 (2015) 65300 43000 44400 62300 88500 91100
2021-03-01 12:45 7.07 46200 94000 (2019) 41500 (2015) 65300 43000 44400 62300 88500 91100
2021-03-01 11:45 7.04 46100 94000 (2019) 41500 (2015) 65300 43000 44400 62300 88500 91100
2021-03-01 10:45 7.03 46000 94000 (2019) 41500 (2015) 65300 43000 44400 62300 88500 91100
2021-03-01 09:45 7.01 45900 94000 (2019) 41500 (2015) 65300 43000 44400 62300 88500 91100
2021-03-01 08:45 7.01 45900 94000 (2019) 41500 (2015) 65300 43000 44400 62300 88500 91100
2021-03-01 07:45 7.02 46000 94000 (2019) 41500 (2015) 65300 43000 44400 62300 88500 91100
2021-03-01 06:45 7.02 46000 94000 (2019) 41500 (2015) 65300 43000 44400 62300 88500 91100
2021-03-01 05:45 7.02 46000 94000 (2019) 41500 (2015) 65300 43000 44400 62300 88500 91100
2021-03-01 04:45 7.04 46100 94000 (2019) 41500 (2015) 65300 43000 44400 62300 88500 91100
2021-03-01 03:45 7.03 46000 94000 (2019) 41500 (2015) 65300 43000 44400 62300 88500 91100
2021-03-01 02:45 7.01 45900 94000 (2019) 41500 (2015) 65300 43000 44400 62300 88500 91100
2021-03-01 01:45 7.01 45900 94000 (2019) 41500 (2015) 65300 43000 44400 62300 88500 91100
2021-03-01 00:45 7.06 46200 94000 (2019) 41500 (2015) 65300 43000 44400 62300 88500 91100
2021-02-28 23:45 7.04 46100 115000 (2019) 40700 (2015) 70400 43500 46000 63500 97500 106000
2021-02-28 22:45 7.07 46200 115000 (2019) 40700 (2015) 70400 43500 46000 63500 97500 106000
2021-02-28 21:45 7.09 46300 115000 (2019) 40700 (2015) 70400 43500 46000 63500 97500 106000
2021-02-28 20:45 7.07 46200 115000 (2019) 40700 (2015) 70400 43500 46000 63500 97500 106000
2021-02-28 19:45 7.06 46200 115000 (2019) 40700 (2015) 70400 43500 46000 63500 97500 106000
2021-02-28 18:45 7.11 46400 115000 (2019) 40700 (2015) 70400 43500 46000 63500 97500 106000
2021-02-28 17:45 7.14 46600 115000 (2019) 40700 (2015) 70400 43500 46000 63500 97500 106000
2021-02-28 16:45 7.16 46700 115000 (2019) 40700 (2015) 70400 43500 46000 63500 97500 106000
2021-02-28 15:45 7.16 46700 115000 (2019) 40700 (2015) 70400 43500 46000 63500 97500 106000
2021-02-28 14:45 7.19 46800 115000 (2019) 40700 (2015) 70400 43500 46000 63500 97500 106000
2021-02-28 13:45 7.22 46900 115000 (2019) 40700 (2015) 70400 43500 46000 63500 97500 106000
2021-02-28 12:45 7.25 47100 115000 (2019) 40700 (2015) 70400 43500 46000 63500 97500 106000
2021-02-28 11:45 7.22 46900 115000 (2019) 40700 (2015) 70400 43500 46000 63500 97500 106000
2021-02-28 10:45 7.29 47300 115000 (2019) 40700 (2015) 70400 43500 46000 63500 97500 106000
2021-02-28 09:45 7.28 47200 115000 (2019) 40700 (2015) 70400 43500 46000 63500 97500 106000
2021-02-28 08:45 7.35 47600 115000 (2019) 40700 (2015) 70400 43500 46000 63500 97500 106000
2021-02-28 07:45 7.34 47500 115000 (2019) 40700 (2015) 70400 43500 46000 63500 97500 106000
2021-02-28 06:45 7.36 47600 115000 (2019) 40700 (2015) 70400 43500 46000 63500 97500 106000
2021-02-28 05:45 7.40 47800 115000 (2019) 40700 (2015) 70400 43500 46000 63500 97500 106000
2021-02-28 04:45 7.43 48000 115000 (2019) 40700 (2015) 70400 43500 46000 63500 97500 106000
2021-02-28 03:45 7.44 48000 115000 (2019) 40700 (2015) 70400 43500 46000 63500 97500 106000
2021-02-28 02:45 7.49 48300 115000 (2019) 40700 (2015) 70400 43500 46000 63500 97500 106000
2021-02-28 01:45 7.50 48300 115000 (2019) 40700 (2015) 70400 43500 46000 63500 97500 106000
2021-02-28 00:45 7.57 48700 115000 (2019) 40700 (2015) 70400 43500 46000 63500 97500 106000
2021-02-27 23:45 7.56 48600 137000 (2019) 40000 (2015) 75200 44000 47500 65500 104000 120000
2021-02-27 22:45 7.58 48700 137000 (2019) 40000 (2015) 75200 44000 47500 65500 104000 120000
2021-02-27 21:45 7.61 48900 137000 (2019) 40000 (2015) 75200 44000 47500 65500 104000 120000
2021-02-27 20:45 7.65 49100 137000 (2019) 40000 (2015) 75200 44000 47500 65500 104000 120000
2021-02-27 19:45 7.65 49100 137000 (2019) 40000 (2015) 75200 44000 47500 65500 104000 120000
2021-02-27 18:45 7.67 49200 137000 (2019) 40000 (2015) 75200 44000 47500 65500 104000 120000
2021-02-27 17:45 7.68 49300 137000 (2019) 40000 (2015) 75200 44000 47500 65500 104000 120000
2021-02-27 16:45 7.72 49500 137000 (2019) 40000 (2015) 75200 44000 47500 65500 104000 120000
2021-02-27 15:45 7.73 49500 137000 (2019) 40000 (2015) 75200 44000 47500 65500 104000 120000
2021-02-27 14:45 7.72 49500 137000 (2019) 40000 (2015) 75200 44000 47500 65500 104000 120000
2021-02-27 13:45 7.75 49600 137000 (2019) 40000 (2015) 75200 44000 47500 65500 104000 120000
2021-02-27 12:45 7.75 49600 137000 (2019) 40000 (2015) 75200 44000 47500 65500 104000 120000
2021-02-27 11:45 7.73 49500 137000 (2019) 40000 (2015) 75200 44000 47500 65500 104000 120000
2021-02-27 10:45 7.73 49500 137000 (2019) 40000 (2015) 75200 44000 47500 65500 104000 120000
2021-02-27 09:45 7.67 49200 137000 (2019) 40000 (2015) 75200 44000 47500 65500 104000 120000
2021-02-27 08:45 7.71 49400 137000 (2019) 40000 (2015) 75200 44000 47500 65500 104000 120000
2021-02-27 07:45 7.69 49300 137000 (2019) 40000 (2015) 75200 44000 47500 65500 104000 120000
2021-02-27 06:45 7.70 49400 137000 (2019) 40000 (2015) 75200 44000 47500 65500 104000 120000
2021-02-27 05:45 7.66 49200 137000 (2019) 40000 (2015) 75200 44000 47500 65500 104000 120000
2021-02-27 04:45 7.63 49000 137000 (2019) 40000 (2015) 75200 44000 47500 65500 104000 120000
2021-02-27 03:45 7.62 48900 137000 (2019) 40000 (2015) 75200 44000 47500 65500 104000 120000
2021-02-27 02:45 7.59 48800 137000 (2019) 40000 (2015) 75200 44000 47500 65500 104000 120000
2021-02-27 01:45 7.51 48400 137000 (2019) 40000 (2015) 75200 44000 47500 65500 104000 120000
2021-02-27 00:45 7.47 48200 137000 (2019) 40000 (2015) 75200 44000 47500 65500 104000 120000
2021-02-26 23:45 7.41 47900 144000 (2019) 41400 (2015) 77700 44900 48000 67600 107000 124000
2021-02-26 22:45 7.29 47300 144000 (2019) 41400 (2015) 77700 44900 48000 67600 107000 124000
2021-02-26 21:45 7.22 46900 144000 (2019) 41400 (2015) 77700 44900 48000 67600 107000 124000
2021-02-26 20:45 7.09 46300 144000 (2019) 41400 (2015) 77700 44900 48000 67600 107000 124000
2021-02-26 19:45 7.03 46000 144000 (2019) 41400 (2015) 77700 44900 48000 67600 107000 124000
2021-02-26 18:45 6.96 45700 144000 (2019) 41400 (2015) 77700 44900 48000 67600 107000 124000
2021-02-26 17:45 6.86 45200 144000 (2019) 41400 (2015) 77700 44900 48000 67600 107000 124000
2021-02-26 16:45 6.74 44600 144000 (2019) 41400 (2015) 77700 44900 48000 67600 107000 124000
2021-02-26 15:45 6.64 44200 144000 (2019) 41400 (2015) 77700 44900 48000 67600 107000 124000
2021-02-26 14:45 6.56 43800 144000 (2019) 41400 (2015) 77700 44900 48000 67600 107000 124000
2021-02-26 13:45 6.46 43300 144000 (2019) 41400 (2015) 77700 44900 48000 67600 107000 124000
2021-02-26 12:45 6.36 42900 144000 (2019) 41400 (2015) 77700 44900 48000 67600 107000 124000
2021-02-26 11:45 6.26 42400 144000 (2019) 41400 (2015) 77700 44900 48000 67600 107000 124000
2021-02-26 10:45 6.21 42200 144000 (2019) 41400 (2015) 77700 44900 48000 67600 107000 124000
2021-02-26 09:45 6.17 42000 144000 (2019) 41400 (2015) 77700 44900 48000 67600 107000 124000
2021-02-26 08:45 6.08 41600 144000 (2019) 41400 (2015) 77700 44900 48000 67600 107000 124000
2021-02-26 07:45 6.06 41500 144000 (2019) 41400 (2015) 77700 44900 48000 67600 107000 124000
2021-02-26 06:45 6.04 41400 144000 (2019) 41400 (2015) 77700 44900 48000 67600 107000 124000
2021-02-26 05:45 5.98 41200 144000 (2019) 41400 (2015) 77700 44900 48000 67600 107000 124000
2021-02-26 04:45 5.95 41000 144000 (2019) 41400 (2015) 77700 44900 48000 67600 107000 124000
2021-02-26 03:45 5.96 41100 144000 (2019) 41400 (2015) 77700 44900 48000 67600 107000 124000
2021-02-26 02:45 5.95 41000 144000 (2019) 41400 (2015) 77700 44900 48000 67600 107000 124000
2021-02-26 01:45 5.95 41000 144000 (2019) 41400 (2015) 77700 44900 48000 67600 107000 124000
2021-02-26 00:45 5.98 41200 144000 (2019) 41400 (2015) 77700 44900 48000 67600 107000 124000
2021-02-25 23:45 6.00 41200 142000 (2019) 43100 (2015) 77500 46000 48500 68400 105000 122000
2021-02-25 22:45 6.07 41600 142000 (2019) 43100 (2015) 77500 46000 48500 68400 105000 122000
2021-02-25 21:45 6.12 41800 142000 (2019) 43100 (2015) 77500 46000 48500 68400 105000 122000
2021-02-25 20:45 6.14 41900 142000 (2019) 43100 (2015) 77500 46000 48500 68400 105000 122000
2021-02-25 19:45 6.21 42200 142000 (2019) 43100 (2015) 77500 46000 48500 68400 105000 122000
2021-02-25 18:45 6.26 42400 142000 (2019) 43100 (2015) 77500 46000 48500 68400 105000 122000
2021-02-25 17:45 6.34 42800 142000 (2019) 43100 (2015) 77500 46000 48500 68400 105000 122000
2021-02-25 16:45 6.41 43100 142000 (2019) 43100 (2015) 77500 46000 48500 68400 105000 122000
2021-02-25 15:45 6.47 43400 142000 (2019) 43100 (2015) 77500 46000 48500 68400 105000 122000
2021-02-25 14:45 6.56 43800 142000 (2019) 43100 (2015) 77500 46000 48500 68400 105000 122000
2021-02-25 13:45 6.68 44300 142000 (2019) 43100 (2015) 77500 46000 48500 68400 105000 122000
2021-02-25 12:45 6.75 44700 142000 (2019) 43100 (2015) 77500 46000 48500 68400 105000 122000
2021-02-25 11:45 6.81 45000 142000 (2019) 43100 (2015) 77500 46000 48500 68400 105000 122000
2021-02-25 10:45 6.90 45400 142000 (2019) 43100 (2015) 77500 46000 48500 68400 105000 122000
2021-02-25 09:45 6.99 45800 142000 (2019) 43100 (2015) 77500 46000 48500 68400 105000 122000
2021-02-25 08:45 7.09 46300 142000 (2019) 43100 (2015) 77500 46000 48500 68400 105000 122000
2021-02-25 07:45 7.19 46800 142000 (2019) 43100 (2015) 77500 46000 48500 68400 105000 122000
2021-02-25 06:45 7.27 47200 142000 (2019) 43100 (2015) 77500 46000 48500 68400 105000 122000
2021-02-25 05:45 7.36 47600 142000 (2019) 43100 (2015) 77500 46000 48500 68400 105000 122000
2021-02-25 04:45 7.45 48100 142000 (2019) 43100 (2015) 77500 46000 48500 68400 105000 122000
2021-02-25 03:45 7.53 48500 142000 (2019) 43100 (2015) 77500 46000 48500 68400 105000 122000
2021-02-25 02:45 7.62 48900 142000 (2019) 43100 (2015) 77500 46000 48500 68400 105000 122000
2021-02-25 01:45 7.69 49300 142000 (2019) 43100 (2015) 77500 46000 48500 68400 105000 122000
2021-02-25 00:45 7.78 49800 142000 (2019) 43100 (2015) 77500 46000 48500 68400 105000 122000
2021-02-24 23:45 7.86 50200 98400 (2019) 41800 (2015) 67700 43900 45800 66900 88400 93100
2021-02-24 22:45 7.95 50700 98400 (2019) 41800 (2015) 67700 43900 45800 66900 88400 93100
2021-02-24 21:45 8.08 51300 98400 (2019) 41800 (2015) 67700 43900 45800 66900 88400 93100
2021-02-24 20:45 8.03 51100 98400 (2019) 41800 (2015) 67700 43900 45800 66900 88400 93100
2021-02-24 19:45 8.04 51100 98400 (2019) 41800 (2015) 67700 43900 45800 66900 88400 93100
2021-02-24 18:45 8.01 51000 98400 (2019) 41800 (2015) 67700 43900 45800 66900 88400 93100
2021-02-24 17:45 7.98 50800 98400 (2019) 41800 (2015) 67700 43900 45800 66900 88400 93100
2021-02-24 16:45 7.95 50700 98400 (2019) 41800 (2015) 67700 43900 45800 66900 88400 93100
2021-02-24 15:45 7.91 50400 98400 (2019) 41800 (2015) 67700 43900 45800 66900 88400 93100
2021-02-24 14:45 7.88 50300 98400 (2019) 41800 (2015) 67700 43900 45800 66900 88400 93100
2021-02-24 13:45 7.88 50300 98400 (2019) 41800 (2015) 67700 43900 45800 66900 88400 93100
2021-02-24 12:45 7.85 50100 98400 (2019) 41800 (2015) 67700 43900 45800 66900 88400 93100
2021-02-24 11:45 7.87 50200 98400 (2019) 41800 (2015) 67700 43900 45800 66900 88400 93100
2021-02-24 10:45 7.89 50300 98400 (2019) 41800 (2015) 67700 43900 45800 66900 88400 93100
2021-02-24 09:45 7.95 50700 98400 (2019) 41800 (2015) 67700 43900 45800 66900 88400 93100
2021-02-24 08:45 7.96 50700 98400 (2019) 41800 (2015) 67700 43900 45800 66900 88400 93100
2021-02-24 07:45 8.02 51000 98400 (2019) 41800 (2015) 67700 43900 45800 66900 88400 93100
2021-02-24 06:45 8.11 55800 98400 (2019) 41800 (2015) 67700 43900 45800 66900 88400 93100
2021-02-24 05:45 8.21 47900 98400 (2019) 41800 (2015) 67700 43900 45800 66900 88400 93100
2021-02-24 04:45 8.29 48300 98400 (2019) 41800 (2015) 67700 43900 45800 66900 88400 93100
2021-02-24 03:45 8.41 48900 98400 (2019) 41800 (2015) 67700 43900 45800 66900 88400 93100
2021-02-24 02:45 8.52 49500 98400 (2019) 41800 (2015) 67700 43900 45800 66900 88400 93100
2021-02-24 01:45 8.59 49900 98400 (2019) 41800 (2015) 67700 43900 45800 66900 88400 93100
2021-02-24 00:45 8.67 50300 98400 (2019) 41800 (2015) 67700 43900 45800 66900 88400 93100
2021-02-23 23:45 8.81 51000 85100 (2020) 40900 (2015) 62200 44300 47300 61200 77900 81300
2021-02-23 22:45 8.93 51700 85100 (2020) 40900 (2015) 62200 44300 47300 61200 77900 81300
2021-02-23 21:45 9.04 52200 85100 (2020) 40900 (2015) 62200 44300 47300 61200 77900 81300
2021-02-23 20:45 9.16 52900 85100 (2020) 40900 (2015) 62200 44300 47300 61200 77900 81300
2021-02-23 19:45 9.25 53400 85100 (2020) 40900 (2015) 62200 44300 47300 61200 77900 81300
2021-02-23 18:45 9.41 54300 85100 (2020) 40900 (2015) 62200 44300 47300 61200 77900 81300
2021-02-23 17:45 9.55 55000 85100 (2020) 40900 (2015) 62200 44300 47300 61200 77900 81300
2021-02-23 16:45 9.67 55700 85100 (2020) 40900 (2015) 62200 44300 47300 61200 77900 81300
2021-02-23 15:45 9.75 56200 85100 (2020) 40900 (2015) 62200 44300 47300 61200 77900 81300
2021-02-23 14:45 9.96 57400 85100 (2020) 40900 (2015) 62200 44300 47300 61200 77900 81300
2021-02-23 13:45 10.02 57700 85100 (2020) 40900 (2015) 62200 44300 47300 61200 77900 81300
2021-02-23 12:45 10.05 57900 85100 (2020) 40900 (2015) 62200 44300 47300 61200 77900 81300
2021-02-23 11:45 9.76 56200 85100 (2020) 40900 (2015) 62200 44300 47300 61200 77900 81300
2021-02-23 10:45 9.70 55900 85100 (2020) 40900 (2015) 62200 44300 47300 61200 77900 81300
2021-02-23 09:45 9.50 54700 85100 (2020) 40900 (2015) 62200 44300 47300 61200 77900 81300
2021-02-23 08:45 9.21 53200 85100 (2020) 40900 (2015) 62200 44300 47300 61200 77900 81300
2021-02-23 07:45 9.03 52200 85100 (2020) 40900 (2015) 62200 44300 47300 61200 77900 81300
2021-02-23 06:45 8.88 51400 85100 (2020) 40900 (2015) 62200 44300 47300 61200 77900 81300
2021-02-23 05:45 8.83 51100 85100 (2020) 40900 (2015) 62200 44300 47300 61200 77900 81300
2021-02-23 04:45 8.28 48300 85100 (2020) 40900 (2015) 62200 44300 47300 61200 77900 81300
2021-02-23 03:45 7.34 43700 85100 (2020) 40900 (2015) 62200 44300 47300 61200 77900 81300
2021-02-23 02:45 4.38 31600 85100 (2020) 40900 (2015) 62200 44300 47300 61200 77900 81300
2021-02-23 01:45 1.25 21800 85100 (2020) 40900 (2015) 62200 44300 47300 61200 77900 81300
2021-02-23 00:45 1.19 21700 85100 (2020) 40900 (2015) 62200 44300 47300 61200 77900 81300
2021-02-22 23:45 1.12 21500 86800 (2020) 42500 (2015) 62700 45600 48300 62500 75600 80800
2021-02-22 22:45 1.04 21300 86800 (2020) 42500 (2015) 62700 45600 48300 62500 75600 80800
2021-02-22 21:45 0.94 21000 86800 (2020) 42500 (2015) 62700 45600 48300 62500 75600 80800
2021-02-22 20:45 0.85 20800 86800 (2020) 42500 (2015) 62700 45600 48300 62500 75600 80800
2021-02-22 19:45 0.76 20600 86800 (2020) 42500 (2015) 62700 45600 48300 62500 75600 80800
2021-02-22 18:45 0.67 20300 86800 (2020) 42500 (2015) 62700 45600 48300 62500 75600 80800
2021-02-22 17:45 0.97 21100 86800 (2020) 42500 (2015) 62700 45600 48300 62500 75600 80800
2021-02-22 16:45 0.89 20900 86800 (2020) 42500 (2015) 62700 45600 48300 62500 75600 80800
2021-02-22 15:45 0.94 21000 86800 (2020) 42500 (2015) 62700 45600 48300 62500 75600 80800
2021-02-22 14:45 0.92 21000 86800 (2020) 42500 (2015) 62700 45600 48300 62500 75600 80800
2021-02-22 13:45 0.90 20900 86800 (2020) 42500 (2015) 62700 45600 48300 62500 75600 80800
2021-02-22 12:45 0.89 20900 86800 (2020) 42500 (2015) 62700 45600 48300 62500 75600 80800
2021-02-22 11:45 0.86 20800 86800 (2020) 42500 (2015) 62700 45600 48300 62500 75600 80800
2021-02-22 10:45 0.85 20800 86800 (2020) 42500 (2015) 62700 45600 48300 62500 75600 80800
2021-02-22 09:45 0.82 20700 86800 (2020) 42500 (2015) 62700 45600 48300 62500 75600 80800
2021-02-22 08:45 0.81 20700 86800 (2020) 42500 (2015) 62700 45600 48300 62500 75600 80800
2021-02-22 07:45 0.79 20600 86800 (2020) 42500 (2015) 62700 45600 48300 62500 75600 80800
2021-02-22 06:45 0.76 20600 86800 (2020) 42500 (2015) 62700 45600 48300 62500 75600 80800
2021-02-22 05:45 0.74 20500 86800 (2020) 42500 (2015) 62700 45600 48300 62500 75600 80800
2021-02-22 04:45 0.71 20400 86800 (2020) 42500 (2015) 62700 45600 48300 62500 75600 80800
2021-02-22 03:45 0.67 20300 86800 (2020) 42500 (2015) 62700 45600 48300 62500 75600 80800
2021-02-22 02:45 0.62 20200 86800 (2020) 42500 (2015) 62700 45600 48300 62500 75600 80800
2021-02-22 01:45 0.61 20200 86800 (2020) 42500 (2015) 62700 45600 48300 62500 75600 80800
2021-02-22 00:45 0.57 20100 86800 (2020) 42500 (2015) 62700 45600 48300 62500 75600 80800
2021-02-21 23:45 0.48 19900 86100 (2020) 43700 (2015) 61200 45300 46700 59800 74000 79600
2021-02-21 22:45 0.50 19900 86100 (2020) 43700 (2015) 61200 45300 46700 59800 74000 79600
2021-02-21 21:45 0.46 19800 86100 (2020) 43700 (2015) 61200 45300 46700 59800 74000 79600
2021-02-21 20:45 0.43 19700 86100 (2020) 43700 (2015) 61200 45300 46700 59800 74000 79600
2021-02-21 19:45 0.40 19700 86100 (2020) 43700 (2015) 61200 45300 46700 59800 74000 79600
2021-02-21 18:45 0.35 19500 86100 (2020) 43700 (2015) 61200 45300 46700 59800 74000 79600
2021-02-21 17:45 0.34 19500 86100 (2020) 43700 (2015) 61200 45300 46700 59800 74000 79600
2021-02-21 16:45 0.29 19400 86100 (2020) 43700 (2015) 61200 45300 46700 59800 74000 79600
2021-02-21 15:45 0.28 19400 86100 (2020) 43700 (2015) 61200 45300 46700 59800 74000 79600
2021-02-21 14:45 0.24 19300 86100 (2020) 43700 (2015) 61200 45300 46700 59800 74000 79600
2021-02-21 13:45 0.21 19200 86100 (2020) 43700 (2015) 61200 45300 46700 59800 74000 79600
2021-02-21 12:45 0.18 19100 86100 (2020) 43700 (2015) 61200 45300 46700 59800 74000 79600
2021-02-21 11:45 0.19 19200 86100 (2020) 43700 (2015) 61200 45300 46700 59800 74000 79600
2021-02-21 10:45 0.17 19100 86100 (2020) 43700 (2015) 61200 45300 46700 59800 74000 79600
2021-02-21 09:45 0.17 19100 86100 (2020) 43700 (2015) 61200 45300 46700 59800 74000 79600
2021-02-21 08:45 -0.04 18600 86100 (2020) 43700 (2015) 61200 45300 46700 59800 74000 79600
2021-02-21 07:45 -0.01 18700 86100 (2020) 43700 (2015) 61200 45300 46700 59800 74000 79600
2021-02-21 06:45 0.15 19100 86100 (2020) 43700 (2015) 61200 45300 46700 59800 74000 79600
2021-02-21 05:45 0.02 18800 86100 (2020) 43700 (2015) 61200 45300 46700 59800 74000 79600
2021-02-21 04:45 0.05 18800 86100 (2020) 43700 (2015) 61200 45300 46700 59800 74000 79600
2021-02-21 03:45 0.02 18800 86100 (2020) 43700 (2015) 61200 45300 46700 59800 74000 79600
2021-02-21 02:45 0.06 18800 86100 (2020) 43700 (2015) 61200 45300 46700 59800 74000 79600
2021-02-21 01:45 0.08 18900 86100 (2020) 43700 (2015) 61200 45300 46700 59800 74000 79600
2021-02-21 00:45 0.06 18800 86100 (2020) 43700 (2015) 61200 45300 46700 59800 74000 79600
2021-02-20 23:45 0.04 18800 82000 (2020) 36300 (2018) 58400 39200 41800 59600 72500 76900
2021-02-20 22:45 0.05 18800 82000 (2020) 36300 (2018) 58400 39200 41800 59600 72500 76900
2021-02-20 21:45 0.08 18900 82000 (2020) 36300 (2018) 58400 39200 41800 59600 72500 76900
2021-02-20 20:45 0.05 18800 82000 (2020) 36300 (2018) 58400 39200 41800 59600 72500 76900
2021-02-20 19:45 -0.12 18400 82000 (2020) 36300 (2018) 58400 39200 41800 59600 72500 76900
2021-02-20 18:45 0.07 18900 82000 (2020) 36300 (2018) 58400 39200 41800 59600 72500 76900
2021-02-20 17:45 0.08 18900 82000 (2020) 36300 (2018) 58400 39200 41800 59600 72500 76900
2021-02-20 16:45 0.06 18800 82000 (2020) 36300 (2018) 58400 39200 41800 59600 72500 76900
2021-02-20 15:45 18700 82000 (2020) 36300 (2018) 58400 39200 41800 59600 72500 76900
2021-02-20 14:45 0.01 18700 82000 (2020) 36300 (2018) 58400 39200 41800 59600 72500 76900
2021-02-20 13:45 -0.28 18100 82000 (2020) 36300 (2018) 58400 39200 41800 59600 72500 76900
2021-02-20 12:45 -0.09 18500 82000 (2020) 36300 (2018) 58400 39200 41800 59600 72500 76900
2021-02-20 11:45 -0.04 18600 82000 (2020) 36300 (2018) 58400 39200 41800 59600 72500 76900
2021-02-20 10:45 -0.31 18000 82000 (2020) 36300 (2018) 58400 39200 41800 59600 72500 76900
2021-02-20 09:45 -0.31 18000 82000 (2020) 36300 (2018) 58400 39200 41800 59600 72500 76900
2021-02-20 08:45 0.01 18700 82000 (2020) 36300 (2018) 58400 39200 41800 59600 72500 76900
2021-02-20 07:45 -0.11 18400 82000 (2020) 36300 (2018) 58400 39200 41800 59600 72500 76900
2021-02-20 06:45 -0.15 18400 82000 (2020) 36300 (2018) 58400 39200 41800 59600 72500 76900
2021-02-20 05:45 -0.16 18300 82000 (2020) 36300 (2018) 58400 39200 41800 59600 72500 76900
2021-02-20 04:45 -0.07 18500 82000 (2020) 36300 (2018) 58400 39200 41800 59600 72500 76900
2021-02-20 03:45 -0.04 18600 82000 (2020) 36300 (2018) 58400 39200 41800 59600 72500 76900
2021-02-20 02:45 -0.20 18200 82000 (2020) 36300 (2018) 58400 39200 41800 59600 72500 76900
2021-02-20 01:45 -0.22 18200 82000 (2020) 36300 (2018) 58400 39200 41800 59600 72500 76900
2021-02-20 00:45 -0.34 17900 82000 (2020) 36300 (2018) 58400 39200 41800 59600 72500 76900
2021-02-19 23:45 -0.28 18100 78400 (2020) 35000 (2018) 57700 38500 41600 59200 72500 75200
2021-02-19 22:45 -0.27 18100 78400 (2020) 35000 (2018) 57700 38500 41600 59200 72500 75200
2021-02-19 21:45 -0.26 18100 78400 (2020) 35000 (2018) 57700 38500 41600 59200 72500 75200
2021-02-19 20:45 -0.26 18100 78400 (2020) 35000 (2018) 57700 38500 41600 59200 72500 75200
2021-02-19 19:45 -0.28 18100 78400 (2020) 35000 (2018) 57700 38500 41600 59200 72500 75200
2021-02-19 18:45 -0.31 18000 78400 (2020) 35000 (2018) 57700 38500 41600 59200 72500 75200
2021-02-19 17:45 -0.31 18000 78400 (2020) 35000 (2018) 57700 38500 41600 59200 72500 75200
2021-02-19 16:45 -0.34 17900 78400 (2020) 35000 (2018) 57700 38500 41600 59200 72500 75200
2021-02-19 15:45 -0.35 17900 78400 (2020) 35000 (2018) 57700 38500 41600 59200 72500 75200
2021-02-19 14:45 -0.31 18000 78400 (2020) 35000 (2018) 57700 38500 41600 59200 72500 75200
2021-02-19 13:45 -0.34 17900 78400 (2020) 35000 (2018) 57700 38500 41600 59200 72500 75200
2021-02-19 12:45 -0.33 17900 78400 (2020) 35000 (2018) 57700 38500 41600 59200 72500 75200
2021-02-19 11:45 -0.23 16300 78400 (2020) 35000 (2018) 57700 38500 41600 59200 72500 75200
2021-02-19 10:45 -0.17 16500 78400 (2020) 35000 (2018) 57700 38500 41600 59200 72500 75200
2021-02-19 09:45 -0.21 16400 78400 (2020) 35000 (2018) 57700 38500 41600 59200 72500 75200
2021-02-19 08:45 -0.14 16500 78400 (2020) 35000 (2018) 57700 38500 41600 59200 72500 75200
2021-02-19 07:45 -0.33 78400 (2020) 35000 (2018) 57700 38500 41600 59200 72500 75200
2021-02-19 06:45 -0.33 78400 (2020) 35000 (2018) 57700 38500 41600 59200 72500 75200
2021-02-19 06:30 16300 78400 (2020) 35000 (2018) 57700 38500 41600 59200 72500 75200
2021-02-19 05:45 -0.34 78400 (2020) 35000 (2018) 57700 38500 41600 59200 72500 75200
2021-02-19 05:30 16300 78400 (2020) 35000 (2018) 57700 38500 41600 59200 72500 75200
2021-02-19 04:45 -0.05 16700 78400 (2020) 35000 (2018) 57700 38500 41600 59200 72500 75200
2021-02-19 03:45 -0.17 16500 78400 (2020) 35000 (2018) 57700 38500 41600 59200 72500 75200
2021-02-19 02:45 -0.16 16500 78400 (2020) 35000 (2018) 57700 38500 41600 59200 72500 75200
2021-02-19 01:45 -0.23 16300 78400 (2020) 35000 (2018) 57700 38500 41600 59200 72500 75200
2021-02-19 00:45 -0.16 16500 78400 (2020) 35000 (2018) 57700 38500 41600 59200 72500 75200
2021-02-18 23:45 -0.13 16500 78300 (2020) 34600 (2018) 58000 38700 42300 58000 75300 76700
2021-02-18 22:45 -0.17 16500 78300 (2020) 34600 (2018) 58000 38700 42300 58000 75300 76700
2021-02-18 21:45 -0.17 16500 78300 (2020) 34600 (2018) 58000 38700 42300 58000 75300 76700
2021-02-18 20:45 -0.12 16600 78300 (2020) 34600 (2018) 58000 38700 42300 58000 75300 76700
2021-02-18 19:45 -0.18 16400 78300 (2020) 34600 (2018) 58000 38700 42300 58000 75300 76700
2021-02-18 18:45 -0.17 16500 78300 (2020) 34600 (2018) 58000 38700 42300 58000 75300 76700
2021-02-18 17:45 -0.19 16400 78300 (2020) 34600 (2018) 58000 38700 42300 58000 75300 76700
2021-02-18 16:45 -0.19 16400 78300 (2020) 34600 (2018) 58000 38700 42300 58000 75300 76700
2021-02-18 15:45 -0.23 16300 78300 (2020) 34600 (2018) 58000 38700 42300 58000 75300 76700
2021-02-18 14:45 -0.20 22200 78300 (2020) 34600 (2018) 58000 38700 42300 58000 75300 76700
2021-02-18 13:45 -0.29 21900 78300 (2020) 34600 (2018) 58000 38700 42300 58000 75300 76700
2021-02-18 12:45 -0.29 21900 78300 (2020) 34600 (2018) 58000 38700 42300 58000 75300 76700
2021-02-18 11:45 -0.29 21900 78300 (2020) 34600 (2018) 58000 38700 42300 58000 75300 76700
2021-02-18 10:45 -0.20 22200 78300 (2020) 34600 (2018) 58000 38700 42300 58000 75300 76700
2021-02-18 09:45 -0.16 22300 78300 (2020) 34600 (2018) 58000 38700 42300 58000 75300 76700
2021-02-18 08:45 -0.27 22000 78300 (2020) 34600 (2018) 58000 38700 42300 58000 75300 76700
2021-02-17 12:45 81200 (2019) 35200 (2018) 58600 40000 44100 54700 79400 80200
2021-02-17 11:30 0.11 23000 81200 (2019) 35200 (2018) 58600 40000 44100 54700 79400 80200
2021-02-17 10:45 0.22 23300 81200 (2019) 35200 (2018) 58600 40000 44100 54700 79400 80200
2021-02-17 09:45 0.30 23600 81200 (2019) 35200 (2018) 58600 40000 44100 54700 79400 80200
2021-02-17 08:45 0.40 23800 81200 (2019) 35200 (2018) 58600 40000 44100 54700 79400 80200
2021-02-17 07:45 0.46 24000 81200 (2019) 35200 (2018) 58600 40000 44100 54700 79400 80200
2021-02-17 06:45 0.50 24100 81200 (2019) 35200 (2018) 58600 40000 44100 54700 79400 80200
2021-02-17 05:45 0.46 24000 81200 (2019) 35200 (2018) 58600 40000 44100 54700 79400 80200
2021-02-17 04:45 0.47 24000 81200 (2019) 35200 (2018) 58600 40000 44100 54700 79400 80200
2021-02-17 03:45 0.66 24600 81200 (2019) 35200 (2018) 58600 40000 44100 54700 79400 80200
2021-02-17 02:45 0.94 25400 81200 (2019) 35200 (2018) 58600 40000 44100 54700 79400 80200
2021-02-17 01:45 1.28 26500 81200 (2019) 35200 (2018) 58600 40000 44100 54700 79400 80200
2021-02-17 00:45 1.74 27900 81200 (2019) 35200 (2018) 58600 40000 44100 54700 79400 80200
2021-02-16 23:45 2.31 29800 83600 (2019) 35700 (2018) 59600 38900 41600 56800 81900 82700
2021-02-16 22:45 3.61 34600 83600 (2019) 35700 (2018) 59600 38900 41600 56800 81900 82700
2021-02-16 21:45 3.88 35600 83600 (2019) 35700 (2018) 59600 38900 41600 56800 81900 82700
2021-02-16 20:45 3.86 35500 83600 (2019) 35700 (2018) 59600 38900 41600 56800 81900 82700
2021-02-16 19:45 3.92 35800 83600 (2019) 35700 (2018) 59600 38900 41600 56800 81900 82700
2021-02-16 18:45 3.97 36000 83600 (2019) 35700 (2018) 59600 38900 41600 56800 81900 82700
2021-02-16 17:45 4.02 36200 83600 (2019) 35700 (2018) 59600 38900 41600 56800 81900 82700
2021-02-16 16:45 4.07 36400 83600 (2019) 35700 (2018) 59600 38900 41600 56800 81900 82700
2021-02-16 15:45 4.00 36100 83600 (2019) 35700 (2018) 59600 38900 41600 56800 81900 82700
2021-02-16 14:45 3.73 35000 83600 (2019) 35700 (2018) 59600 38900 41600 56800 81900 82700
2021-02-16 13:45 3.59 34500 83600 (2019) 35700 (2018) 59600 38900 41600 56800 81900 82700
2021-02-16 12:45 3.70 34900 83600 (2019) 35700 (2018) 59600 38900 41600 56800 81900 82700
2021-02-16 11:45 3.82 35400 83600 (2019) 35700 (2018) 59600 38900 41600 56800 81900 82700
2021-02-16 10:45 3.83 35400 83600 (2019) 35700 (2018) 59600 38900 41600 56800 81900 82700
2021-02-16 09:45 3.84 35500 83600 (2019) 35700 (2018) 59600 38900 41600 56800 81900 82700
2021-02-16 08:45 3.49 34100 83600 (2019) 35700 (2018) 59600 38900 41600 56800 81900 82700
2021-02-16 05:45 3.27 33300 83600 (2019) 35700 (2018) 59600 38900 41600 56800 81900 82700
2021-02-16 04:45 3.81 35400 83600 (2019) 35700 (2018) 59600 38900 41600 56800 81900 82700
2021-02-16 03:45 4.03 36200 83600 (2019) 35700 (2018) 59600 38900 41600 56800 81900 82700
2021-02-16 02:45 4.14 36700 83600 (2019) 35700 (2018) 59600 38900 41600 56800 81900 82700
2021-02-16 01:45 3.34 33500 83600 (2019) 35700 (2018) 59600 38900 41600 56800 81900 82700
2021-02-16 00:45 3.01 32300 83600 (2019) 35700 (2018) 59600 38900 41600 56800 81900 82700
2021-02-15 23:45 3.48 34100 85700 (2020) 36000 (2018) 61200 39100 41800 59800 82900 84200
2021-02-15 22:45 4.26 37200 85700 (2020) 36000 (2018) 61200 39100 41800 59800 82900 84200
2021-02-15 21:45 3.61 34600 85700 (2020) 36000 (2018) 61200 39100 41800 59800 82900 84200
2021-02-15 20:45 3.41 33800 85700 (2020) 36000 (2018) 61200 39100 41800 59800 82900 84200
2021-02-15 19:45 3.52 34200 85700 (2020) 36000 (2018) 61200 39100 41800 59800 82900 84200
2021-02-15 18:45 3.66 34800 85700 (2020) 36000 (2018) 61200 39100 41800 59800 82900 84200
2021-02-15 17:45 3.83 35400 85700 (2020) 36000 (2018) 61200 39100 41800 59800 82900 84200
2021-02-15 16:45 3.84 35500 85700 (2020) 36000 (2018) 61200 39100 41800 59800 82900 84200
2021-02-15 15:45 3.78 35200 85700 (2020) 36000 (2018) 61200 39100 41800 59800 82900 84200
2021-02-15 14:45 3.75 35100 85700 (2020) 36000 (2018) 61200 39100 41800 59800 82900 84200
2021-02-15 13:45 3.62 34600 85700 (2020) 36000 (2018) 61200 39100 41800 59800 82900 84200
2021-02-15 12:45 3.41 33800 85700 (2020) 36000 (2018) 61200 39100 41800 59800 82900 84200
2021-02-15 11:45 3.48 34100 85700 (2020) 36000 (2018) 61200 39100 41800 59800 82900 84200
2021-02-15 10:45 3.63 34700 85700 (2020) 36000 (2018) 61200 39100 41800 59800 82900 84200
2021-02-15 09:45 3.63 34700 85700 (2020) 36000 (2018) 61200 39100 41800 59800 82900 84200
2021-02-15 08:45 3.35 33600 85700 (2020) 36000 (2018) 61200 39100 41800 59800 82900 84200
2021-02-15 07:45 3.48 34100 85700 (2020) 36000 (2018) 61200 39100 41800 59800 82900 84200
2021-02-15 06:45 3.70 34900 85700 (2020) 36000 (2018) 61200 39100 41800 59800 82900 84200
2021-02-15 05:45 3.71 35000 85700 (2020) 36000 (2018) 61200 39100 41800 59800 82900 84200
2021-02-15 04:45 3.58 34500 85700 (2020) 36000 (2018) 61200 39100 41800 59800 82900 84200
2021-02-15 03:45 3.62 34600 85700 (2020) 36000 (2018) 61200 39100 41800 59800 82900 84200
2021-02-15 02:45 3.73 35000 85700 (2020) 36000 (2018) 61200 39100 41800 59800 82900 84200
2021-02-15 01:45 3.57 34400 85700 (2020) 36000 (2018) 61200 39100 41800 59800 82900 84200
2021-02-15 00:45 3.69 34900 85700 (2020) 36000 (2018) 61200 39100 41800 59800 82900 84200
2021-02-14 23:45 3.97 36000 88200 (2020) 36100 (2018) 62500 39500 42500 60700 85500 86800
2021-02-14 22:45 3.66 34800 88200 (2020) 36100 (2018) 62500 39500 42500 60700 85500 86800
2021-02-14 21:45 3.61 34600 88200 (2020) 36100 (2018) 62500 39500 42500 60700 85500 86800
2021-02-14 20:45 3.80 35300 88200 (2020) 36100 (2018) 62500 39500 42500 60700 85500 86800
2021-02-14 19:45 3.74 35100 88200 (2020) 36100 (2018) 62500 39500 42500 60700 85500 86800
2021-02-14 18:45 3.68 34800 88200 (2020) 36100 (2018) 62500 39500 42500 60700 85500 86800
2021-02-14 17:45 3.69 34900 88200 (2020) 36100 (2018) 62500 39500 42500 60700 85500 86800
2021-02-14 16:45 3.86 35500 88200 (2020) 36100 (2018) 62500 39500 42500 60700 85500 86800
2021-02-14 15:45 3.93 35800 88200 (2020) 36100 (2018) 62500 39500 42500 60700 85500 86800
2021-02-14 14:45 3.72 35000 88200 (2020) 36100 (2018) 62500 39500 42500 60700 85500 86800
2021-02-14 13:45 3.53 34300 88200 (2020) 36100 (2018) 62500 39500 42500 60700 85500 86800
2021-02-14 12:45 3.59 34500 88200 (2020) 36100 (2018) 62500 39500 42500 60700 85500 86800
2021-02-14 11:45 3.65 34700 88200 (2020) 36100 (2018) 62500 39500 42500 60700 85500 86800
2021-02-14 10:45 3.74 35100 88200 (2020) 36100 (2018) 62500 39500 42500 60700 85500 86800
2021-02-14 09:45 3.59 34500 88200 (2020) 36100 (2018) 62500 39500 42500 60700 85500 86800
2021-02-14 08:45 3.59 34500 88200 (2020) 36100 (2018) 62500 39500 42500 60700 85500 86800
2021-02-14 07:45 3.83 35400 88200 (2020) 36100 (2018) 62500 39500 42500 60700 85500 86800
2021-02-14 06:45 3.84 35500 88200 (2020) 36100 (2018) 62500 39500 42500 60700 85500 86800
2021-02-14 05:45 3.86 35500 88200 (2020) 36100 (2018) 62500 39500 42500 60700 85500 86800
2021-02-14 04:45 3.75 35100 88200 (2020) 36100 (2018) 62500 39500 42500 60700 85500 86800
2021-02-14 03:45 3.78 35200 88200 (2020) 36100 (2018) 62500 39500 42500 60700 85500 86800
2021-02-14 02:45 3.71 35000 88200 (2020) 36100 (2018) 62500 39500 42500 60700 85500 86800
2021-02-14 01:45 3.76 35200 88200 (2020) 36100 (2018) 62500 39500 42500 60700 85500 86800
2021-02-14 00:45 3.76 35200 88200 (2020) 36100 (2018) 62500 39500 42500 60700 85500 86800
2021-02-13 23:45 3.77 35200 88400 (2020) 36300 (2018) 62200 39800 42900 59200 85700 87000
2021-02-13 22:45 3.78 35200 88400 (2020) 36300 (2018) 62200 39800 42900 59200 85700 87000
2021-02-13 21:45 3.82 35400 88400 (2020) 36300 (2018) 62200 39800 42900 59200 85700 87000
2021-02-13 20:45 3.85 35500 88400 (2020) 36300 (2018) 62200 39800 42900 59200 85700 87000
2021-02-13 19:45 3.87 35600 88400 (2020) 36300 (2018) 62200 39800 42900 59200 85700 87000
2021-02-13 18:45 3.89 35700 88400 (2020) 36300 (2018) 62200 39800 42900 59200 85700 87000
2021-02-13 17:45 3.91 35700 88400 (2020) 36300 (2018) 62200 39800 42900 59200 85700 87000
2021-02-13 16:45 3.88 35600 88400 (2020) 36300 (2018) 62200 39800 42900 59200 85700 87000
2021-02-13 15:45 3.89 35700 88400 (2020) 36300 (2018) 62200 39800 42900 59200 85700 87000
2021-02-13 14:45 3.90 35700 88400 (2020) 36300 (2018) 62200 39800 42900 59200 85700 87000
2021-02-13 13:45 3.90 35700 88400 (2020) 36300 (2018) 62200 39800 42900 59200 85700 87000
2021-02-13 12:45 3.87 35600 88400 (2020) 36300 (2018) 62200 39800 42900 59200 85700 87000
2021-02-13 11:45 3.89 35700 88400 (2020) 36300 (2018) 62200 39800 42900 59200 85700 87000
2021-02-13 10:45 3.89 35700 88400 (2020) 36300 (2018) 62200 39800 42900 59200 85700 87000
2021-02-13 09:45 3.91 35700 88400 (2020) 36300 (2018) 62200 39800 42900 59200 85700 87000
2021-02-13 08:45 3.92 35800 88400 (2020) 36300 (2018) 62200 39800 42900 59200 85700 87000
2021-02-13 07:45 3.91 35700 88400 (2020) 36300 (2018) 62200 39800 42900 59200 85700 87000
2021-02-13 06:45 3.92 35800 88400 (2020) 36300 (2018) 62200 39800 42900 59200 85700 87000
2021-02-13 05:45 3.96 35900 88400 (2020) 36300 (2018) 62200 39800 42900 59200 85700 87000
2021-02-13 04:45 3.94 35900 88400 (2020) 36300 (2018) 62200 39800 42900 59200 85700 87000
2021-02-13 03:45 3.96 35900 88400 (2020) 36300 (2018) 62200 39800 42900 59200 85700 87000
2021-02-13 02:45 3.95 35900 88400 (2020) 36300 (2018) 62200 39800 42900 59200 85700 87000
2021-02-13 01:45 3.95 35900 88400 (2020) 36300 (2018) 62200 39800 42900 59200 85700 87000
2021-02-13 00:45 3.97 36000 88400 (2020) 36300 (2018) 62200 39800 42900 59200 85700 87000
2021-02-12 23:45 3.98 36000 90300 (2020) 36700 (2018) 60800 40300 43400 60000 76600 83000
2021-02-12 22:45 3.98 36000 90300 (2020) 36700 (2018) 60800 40300 43400 60000 76600 83000
2021-02-12 21:45 4.00 36100 90300 (2020) 36700 (2018) 60800 40300 43400 60000 76600 83000
2021-02-12 20:45 4.02 36200 90300 (2020) 36700 (2018) 60800 40300 43400 60000 76600 83000
2021-02-12 19:45 4.03 36200 90300 (2020) 36700 (2018) 60800 40300 43400 60000 76600 83000
2021-02-12 18:45 4.04 36300 90300 (2020) 36700 (2018) 60800 40300 43400 60000 76600 83000
2021-02-12 17:45 4.07 36400 90300 (2020) 36700 (2018) 60800 40300 43400 60000 76600 83000
2021-02-12 16:45 4.07 36400 90300 (2020) 36700 (2018) 60800 40300 43400 60000 76600 83000
2021-02-12 15:45 4.09 36500 90300 (2020) 36700 (2018) 60800 40300 43400 60000 76600 83000
2021-02-12 14:45 4.11 36500 90300 (2020) 36700 (2018) 60800 40300 43400 60000 76600 83000
2021-02-12 13:45 4.11 36500 90300 (2020) 36700 (2018) 60800 40300 43400 60000 76600 83000
2021-02-12 12:45 4.15 36700 90300 (2020) 36700 (2018) 60800 40300 43400 60000 76600 83000
2021-02-12 11:45 4.13 36600 90300 (2020) 36700 (2018) 60800 40300 43400 60000 76600 83000
2021-02-12 10:45 4.14 36700 90300 (2020) 36700 (2018) 60800 40300 43400 60000 76600 83000
2021-02-12 09:45 4.16 36700 90300 (2020) 36700 (2018) 60800 40300 43400 60000 76600 83000
2021-02-12 08:45 4.18 36800 90300 (2020) 36700 (2018) 60800 40300 43400 60000 76600 83000
2021-02-12 07:45 4.19 36900 90300 (2020) 36700 (2018) 60800 40300 43400 60000 76600 83000
2021-02-12 06:45 4.20 36900 90300 (2020) 36700 (2018) 60800 40300 43400 60000 76600 83000
2021-02-12 05:45 4.23 37000 90300 (2020) 36700 (2018) 60800 40300 43400 60000 76600 83000
2021-02-12 04:45 4.25 37100 90300 (2020) 36700 (2018) 60800 40300 43400 60000 76600 83000
2021-02-12 03:45 4.27 37200 90300 (2020) 36700 (2018) 60800 40300 43400 60000 76600 83000
2021-02-12 02:45 4.27 37200 90300 (2020) 36700 (2018) 60800 40300 43400 60000 76600 83000
2021-02-12 01:45 4.27 37200 90300 (2020) 36700 (2018) 60800 40300 43400 60000 76600 83000
2021-02-12 00:45 4.28 37200 90300 (2020) 36700 (2018) 60800 40300 43400 60000 76600 83000
2021-02-11 23:45 4.29 37300 95900 (2020) 36600 (2018) 61400 40300 43600 60600 75700 85100
2021-02-11 22:45 4.32 37400 95900 (2020) 36600 (2018) 61400 40300 43600 60600 75700 85100
2021-02-11 21:45 4.34 37500 95900 (2020) 36600 (2018) 61400 40300 43600 60600 75700 85100
2021-02-11 20:45 4.35 37500 95900 (2020) 36600 (2018) 61400 40300 43600 60600 75700 85100
2021-02-11 19:45 4.37 37600 95900 (2020) 36600 (2018) 61400 40300 43600 60600 75700 85100
2021-02-11 18:45 4.39 37700 95900 (2020) 36600 (2018) 61400 40300 43600 60600 75700 85100
2021-02-11 17:45 4.41 37800 95900 (2020) 36600 (2018) 61400 40300 43600 60600 75700 85100
2021-02-11 16:45 4.41 37800 95900 (2020) 36600 (2018) 61400 40300 43600 60600 75700 85100
2021-02-11 15:45 4.46 38000 95900 (2020) 36600 (2018) 61400 40300 43600 60600 75700 85100
2021-02-11 14:45 4.46 38000 95900 (2020) 36600 (2018) 61400 40300 43600 60600 75700 85100
2021-02-11 13:45 4.47 38000 95900 (2020) 36600 (2018) 61400 40300 43600 60600 75700 85100
2021-02-11 12:45 4.49 38100 95900 (2020) 36600 (2018) 61400 40300 43600 60600 75700 85100
2021-02-11 11:45 4.50 38100 95900 (2020) 36600 (2018) 61400 40300 43600 60600 75700 85100
2021-02-11 10:45 4.52 38200 95900 (2020) 36600 (2018) 61400 40300 43600 60600 75700 85100
2021-02-11 09:45 4.53 38300 95900 (2020) 36600 (2018) 61400 40300 43600 60600 75700 85100
2021-02-11 08:45 4.54 38300 95900 (2020) 36600 (2018) 61400 40300 43600 60600 75700 85100
2021-02-11 07:45 4.55 38400 95900 (2020) 36600 (2018) 61400 40300 43600 60600 75700 85100
2021-02-11 06:45 4.57 38400 95900 (2020) 36600 (2018) 61400 40300 43600 60600 75700 85100
2021-02-11 05:45 4.57 38400 95900 (2020) 36600 (2018) 61400 40300 43600 60600 75700 85100
2021-02-11 04:45 4.59 38500 95900 (2020) 36600 (2018) 61400 40300 43600 60600 75700 85100
2021-02-11 03:45 4.59 38500 95900 (2020) 36600 (2018) 61400 40300 43600 60600 75700 85100
2021-02-11 02:45 4.61 38600 95900 (2020) 36600 (2018) 61400 40300 43600 60600 75700 85100
2021-02-11 01:45 4.60 38600 95900 (2020) 36600 (2018) 61400 40300 43600 60600 75700 85100
2021-02-11 00:45 4.63 38700 95900 (2020) 36600 (2018) 61400 40300 43600 60600 75700 85100
2021-02-10 23:45 4.63 38700 100000 (2020) 36400 (2018) 62200 39700 42500 57400 83200 91000
2021-02-10 22:45 4.64 38700 100000 (2020) 36400 (2018) 62200 39700 42500 57400 83200 91000
2021-02-10 21:45 4.63 38700 100000 (2020) 36400 (2018) 62200 39700 42500 57400 83200 91000
2021-02-10 20:45 4.64 38700 100000 (2020) 36400 (2018) 62200 39700 42500 57400 83200 91000
2021-02-10 19:45 4.65 38800 100000 (2020) 36400 (2018) 62200 39700 42500 57400 83200 91000
2021-02-10 18:45 4.66 38800 100000 (2020) 36400 (2018) 62200 39700 42500 57400 83200 91000
2021-02-10 17:45 4.66 38800 100000 (2020) 36400 (2018) 62200 39700 42500 57400 83200 91000
2021-02-10 16:45 4.68 38900 100000 (2020) 36400 (2018) 62200 39700 42500 57400 83200 91000
2021-02-10 15:45 4.69 38900 100000 (2020) 36400 (2018) 62200 39700 42500 57400 83200 91000
2021-02-10 14:45 4.69 38900 100000 (2020) 36400 (2018) 62200 39700 42500 57400 83200 91000
2021-02-10 13:45 4.71 39000 100000 (2020) 36400 (2018) 62200 39700 42500 57400 83200 91000
2021-02-10 12:45 4.72 39100 100000 (2020) 36400 (2018) 62200 39700 42500 57400 83200 91000
2021-02-10 11:45 4.72 39100 100000 (2020) 36400 (2018) 62200 39700 42500 57400 83200 91000
2021-02-10 10:45 4.73 39100 100000 (2020) 36400 (2018) 62200 39700 42500 57400 83200 91000
2021-02-10 09:45 4.73 39100 100000 (2020) 36400 (2018) 62200 39700 42500 57400 83200 91000
2021-02-10 08:45 4.74 39200 100000 (2020) 36400 (2018) 62200 39700 42500 57400 83200 91000
2021-02-10 07:45 4.75 39200 100000 (2020) 36400 (2018) 62200 39700 42500 57400 83200 91000
2021-02-10 06:45 4.75 39200 100000 (2020) 36400 (2018) 62200 39700 42500 57400 83200 91000
2021-02-10 05:45 4.76 39200 100000 (2020) 36400 (2018) 62200 39700 42500 57400 83200 91000
2021-02-10 04:45 4.76 39200 100000 (2020) 36400 (2018) 62200 39700 42500 57400 83200 91000
2021-02-10 03:45 4.77 39300 100000 (2020) 36400 (2018) 62200 39700 42500 57400 83200 91000
2021-02-10 02:45 4.79 39400 100000 (2020) 36400 (2018) 62200 39700 42500 57400 83200 91000
2021-02-10 01:45 4.75 39200 100000 (2020) 36400 (2018) 62200 39700 42500 57400 83200 91000
2021-02-10 00:45 4.79 39400 100000 (2020) 36400 (2018) 62200 39700 42500 57400 83200 91000
2021-02-09 23:45 4.80 39400 101000 (2020) 37000 (2018) 64900 38300 39500 58300 96400 98500
2021-02-09 22:45 4.79 39400 101000 (2020) 37000 (2018) 64900 38300 39500 58300 96400 98500
2021-02-09 21:45 4.81 39500 101000 (2020) 37000 (2018) 64900 38300 39500 58300 96400 98500
2021-02-09 20:45 4.81 39500 101000 (2020) 37000 (2018) 64900 38300 39500 58300 96400 98500
2021-02-09 19:45 4.83 39500 101000 (2020) 37000 (2018) 64900 38300 39500 58300 96400 98500
2021-02-09 18:45 4.85 39600 101000 (2020) 37000 (2018) 64900 38300 39500 58300 96400 98500
2021-02-09 17:45 4.86 39700 101000 (2020) 37000 (2018) 64900 38300 39500 58300 96400 98500
2021-02-09 16:45 4.90 39800 101000 (2020) 37000 (2018) 64900 38300 39500 58300 96400 98500
2021-02-09 15:45 4.93 40000 101000 (2020) 37000 (2018) 64900 38300 39500 58300 96400 98500
2021-02-09 14:45 4.93 40000 101000 (2020) 37000 (2018) 64900 38300 39500 58300 96400 98500
2021-02-09 13:45 4.96 40100 101000 (2020) 37000 (2018) 64900 38300 39500 58300 96400 98500
2021-02-09 12:45 4.99 40200 101000 (2020) 37000 (2018) 64900 38300 39500 58300 96400 98500
2021-02-09 11:45 5.01 40300 101000 (2020) 37000 (2018) 64900 38300 39500 58300 96400 98500
2021-02-09 10:45 5.01 40300 101000 (2020) 37000 (2018) 64900 38300 39500 58300 96400 98500
2021-02-09 09:45 5.05 40500 101000 (2020) 37000 (2018) 64900 38300 39500 58300 96400 98500
2021-02-09 08:45 5.09 40700 101000 (2020) 37000 (2018) 64900 38300 39500 58300 96400 98500
2021-02-09 07:45 5.09 40700 101000 (2020) 37000 (2018) 64900 38300 39500 58300 96400 98500
2021-02-09 06:45 5.10 40700 101000 (2020) 37000 (2018) 64900 38300 39500 58300 96400 98500
2021-02-09 05:45 5.14 40900 101000 (2020) 37000 (2018) 64900 38300 39500 58300 96400 98500
2021-02-09 04:45 5.17 41000 101000 (2020) 37000 (2018) 64900 38300 39500 58300 96400 98500
2021-02-09 03:45 5.21 41200 101000 (2020) 37000 (2018) 64900 38300 39500 58300 96400 98500
2021-02-09 02:45 5.24 41300 101000 (2020) 37000 (2018) 64900 38300 39500 58300 96400 98500
2021-02-09 01:45 5.26 41400 101000 (2020) 37000 (2018) 64900 38300 39500 58300 96400 98500
2021-02-09 00:45 5.30 41600 101000 (2020) 37000 (2018) 64900 38300 39500 58300 96400 98500
2021-02-08 23:45 5.32 41700 122000 (2019) 38000 (2018) 71600 39400 40600 61200 110000 116000
2021-02-08 22:45 5.35 41800 122000 (2019) 38000 (2018) 71600 39400 40600 61200 110000 116000
2021-02-08 21:45 5.39 42000 122000 (2019) 38000 (2018) 71600 39400 40600 61200 110000 116000
2021-02-08 20:45 5.42 42100 122000 (2019) 38000 (2018) 71600 39400 40600 61200 110000 116000
2021-02-08 19:45 5.44 42200 122000 (2019) 38000 (2018) 71600 39400 40600 61200 110000 116000
2021-02-08 18:45 5.47 42400 122000 (2019) 38000 (2018) 71600 39400 40600 61200 110000 116000
2021-02-08 17:45 5.52 42600 122000 (2019) 38000 (2018) 71600 39400 40600 61200 110000 116000
2021-02-08 16:45 5.56 42800 122000 (2019) 38000 (2018) 71600 39400 40600 61200 110000 116000
2021-02-08 15:45 5.59 42900 122000 (2019) 38000 (2018) 71600 39400 40600 61200 110000 116000
2021-02-08 14:45 5.62 43000 122000 (2019) 38000 (2018) 71600 39400 40600 61200 110000 116000
2021-02-08 13:45 5.65 43200 122000 (2019) 38000 (2018) 71600 39400 40600 61200 110000 116000
2021-02-08 12:45 5.66 43200 122000 (2019) 38000 (2018) 71600 39400 40600 61200 110000 116000
2021-02-08 11:45 5.74 43600 122000 (2019) 38000 (2018) 71600 39400 40600 61200 110000 116000
2021-02-08 10:45 5.74 43600 122000 (2019) 38000 (2018) 71600 39400 40600 61200 110000 116000
2021-02-08 09:45 5.78 43800 122000 (2019) 38000 (2018) 71600 39400 40600 61200 110000 116000
2021-02-08 08:45 5.79 43800 122000 (2019) 38000 (2018) 71600 39400 40600 61200 110000 116000
2021-02-08 07:45 5.83 44000 122000 (2019) 38000 (2018) 71600 39400 40600 61200 110000 116000
2021-02-08 06:45 5.86 44200 122000 (2019) 38000 (2018) 71600 39400 40600 61200 110000 116000
2021-02-08 05:45 5.88 44300 122000 (2019) 38000 (2018) 71600 39400 40600 61200 110000 116000
2021-02-08 04:45 5.90 44300 122000 (2019) 38000 (2018) 71600 39400 40600 61200 110000 116000
2021-02-08 03:45 5.92 44400 122000 (2019) 38000 (2018) 71600 39400 40600 61200 110000 116000
2021-02-08 02:45 5.94 44500 122000 (2019) 38000 (2018) 71600 39400 40600 61200 110000 116000
2021-02-08 01:45 5.95 44600 122000 (2019) 38000 (2018) 71600 39400 40600 61200 110000 116000
2021-02-08 00:45 5.96 44600 122000 (2019) 38000 (2018) 71600 39400 40600 61200 110000 116000
2021-02-07 23:45 5.97 44700 134000 (2019) 38100 (2018) 76800 40700 43000 65600 118000 126000
2021-02-07 22:45 5.97 44700 134000 (2019) 38100 (2018) 76800 40700 43000 65600 118000 126000
2021-02-07 21:45 5.99 44800 134000 (2019) 38100 (2018) 76800 40700 43000 65600 118000 126000
2021-02-07 20:45 6.02 44900 134000 (2019) 38100 (2018) 76800 40700 43000 65600 118000 126000
2021-02-07 19:45 6.00 44800 134000 (2019) 38100 (2018) 76800 40700 43000 65600 118000 126000
2021-02-07 18:45 6.01 44900 134000 (2019) 38100 (2018) 76800 40700 43000 65600 118000 126000
2021-02-07 17:45 6.02 44900 134000 (2019) 38100 (2018) 76800 40700 43000 65600 118000 126000
2021-02-07 16:45 6.00 44800 134000 (2019) 38100 (2018) 76800 40700 43000 65600 118000 126000
2021-02-07 15:45 6.03 45000 134000 (2019) 38100 (2018) 76800 40700 43000 65600 118000 126000
2021-02-07 14:45 6.03 45000 134000 (2019) 38100 (2018) 76800 40700 43000 65600 118000 126000
2021-02-07 13:45 6.03 45000 134000 (2019) 38100 (2018) 76800 40700 43000 65600 118000 126000
2021-02-07 12:45 6.02 44900 134000 (2019) 38100 (2018) 76800 40700 43000 65600 118000 126000
2021-02-07 10:45 6.03 45000 134000 (2019) 38100 (2018) 76800 40700 43000 65600 118000 126000
2021-02-07 09:45 6.02 44900 134000 (2019) 38100 (2018) 76800 40700 43000 65600 118000 126000
2021-02-07 08:45 6.02 44900 134000 (2019) 38100 (2018) 76800 40700 43000 65600 118000 126000
2021-02-07 07:45 6.03 45000 134000 (2019) 38100 (2018) 76800 40700 43000 65600 118000 126000
2021-02-07 06:45 6.02 44900 134000 (2019) 38100 (2018) 76800 40700 43000 65600 118000 126000
2021-02-07 05:45 6.01 44900 134000 (2019) 38100 (2018) 76800 40700 43000 65600 118000 126000
2021-02-07 04:45 6.00 44800 134000 (2019) 38100 (2018) 76800 40700 43000 65600 118000 126000
2021-02-07 03:45 6.00 44800 134000 (2019) 38100 (2018) 76800 40700 43000 65600 118000 126000
2021-02-07 02:45 6.01 44900 134000 (2019) 38100 (2018) 76800 40700 43000 65600 118000 126000
2021-02-07 01:45 5.99 44800 134000 (2019) 38100 (2018) 76800 40700 43000 65600 118000 126000
2021-02-07 00:45 5.99 44800 134000 (2019) 38100 (2018) 76800 40700 43000 65600 118000 126000
2021-02-06 23:45 5.99 44800 121000 (2020) 37900 (2018) 77200 42100 45700 70100 117000 119000
2021-02-06 22:45 6.00 44800 121000 (2020) 37900 (2018) 77200 42100 45700 70100 117000 119000
2021-02-06 21:45 6.00 44800 121000 (2020) 37900 (2018) 77200 42100 45700 70100 117000 119000
2021-02-06 20:45 6.02 44900 121000 (2020) 37900 (2018) 77200 42100 45700 70100 117000 119000
2021-02-06 19:45 5.98 44700 121000 (2020) 37900 (2018) 77200 42100 45700 70100 117000 119000
2021-02-06 18:45 6.00 44800 121000 (2020) 37900 (2018) 77200 42100 45700 70100 117000 119000
2021-02-06 17:45 5.99 44800 121000 (2020) 37900 (2018) 77200 42100 45700 70100 117000 119000
2021-02-06 16:45 6.00 44800 121000 (2020) 37900 (2018) 77200 42100 45700 70100 117000 119000
2021-02-06 15:45 6.02 44900 121000 (2020) 37900 (2018) 77200 42100 45700 70100 117000 119000
2021-02-06 14:45 6.01 44900 121000 (2020) 37900 (2018) 77200 42100 45700 70100 117000 119000
2021-02-06 13:45 6.03 45000 121000 (2020) 37900 (2018) 77200 42100 45700 70100 117000 119000
2021-02-06 12:45 6.04 45000 121000 (2020) 37900 (2018) 77200 42100 45700 70100 117000 119000
2021-02-06 11:45 6.05 45100 121000 (2020) 37900 (2018) 77200 42100 45700 70100 117000 119000
2021-02-06 10:45 6.05 45100 121000 (2020) 37900 (2018) 77200 42100 45700 70100 117000 119000
2021-02-06 09:45 6.07 45200 121000 (2020) 37900 (2018) 77200 42100 45700 70100 117000 119000
2021-02-06 08:45 6.08 45200 121000 (2020) 37900 (2018) 77200 42100 45700 70100 117000 119000
2021-02-06 07:45 6.09 45300 121000 (2020) 37900 (2018) 77200 42100 45700 70100 117000 119000
2021-02-06 06:45 6.13 45400 121000 (2020) 37900 (2018) 77200 42100 45700 70100 117000 119000
2021-02-06 05:45 6.13 45400 121000 (2020) 37900 (2018) 77200 42100 45700 70100 117000 119000
2021-02-06 04:45 6.14 45500 121000 (2020) 37900 (2018) 77200 42100 45700 70100 117000 119000
2021-02-06 03:45 6.16 45600 121000 (2020) 37900 (2018) 77200 42100 45700 70100 117000 119000
2021-02-06 02:45 6.17 45600 121000 (2020) 37900 (2018) 77200 42100 45700 70100 117000 119000
2021-02-06 01:45 6.20 45800 121000 (2020) 37900 (2018) 77200 42100 45700 70100 117000 119000
2021-02-06 00:45 6.20 45800 121000 (2020) 37900 (2018) 77200 42100 45700 70100 117000 119000
2021-02-05 23:45 6.23 45900 121000 (2020) 38400 (2018) 76300 42400 45800 75200 105000 113000
2021-02-05 22:45 6.25 46000 121000 (2020) 38400 (2018) 76300 42400 45800 75200 105000 113000
2021-02-05 21:45 6.27 46100 121000 (2020) 38400 (2018) 76300 42400 45800 75200 105000 113000
2021-02-05 20:45 6.29 46200 121000 (2020) 38400 (2018) 76300 42400 45800 75200 105000 113000
2021-02-05 19:45 6.33 46400 121000 (2020) 38400 (2018) 76300 42400 45800 75200 105000 113000
2021-02-05 18:45 6.35 46500 121000 (2020) 38400 (2018) 76300 42400 45800 75200 105000 113000
2021-02-05 17:45 6.36 46600 121000 (2020) 38400 (2018) 76300 42400 45800 75200 105000 113000
2021-02-05 16:45 6.39 46700 121000 (2020) 38400 (2018) 76300 42400 45800 75200 105000 113000
2021-02-05 15:45 6.42 46800 121000 (2020) 38400 (2018) 76300 42400 45800 75200 105000 113000
2021-02-05 14:45 6.45 47000 121000 (2020) 38400 (2018) 76300 42400 45800 75200 105000 113000
2021-02-05 13:45 6.48 47100 121000 (2020) 38400 (2018) 76300 42400 45800 75200 105000 113000
2021-02-05 12:45 6.51 47300 121000 (2020) 38400 (2018) 76300 42400 45800 75200 105000 113000
2021-02-05 11:45 6.54 47400 121000 (2020) 38400 (2018) 76300 42400 45800 75200 105000 113000
2021-02-05 10:45 6.58 47600 121000 (2020) 38400 (2018) 76300 42400 45800 75200 105000 113000
2021-02-05 09:45 6.61 47800 121000 (2020) 38400 (2018) 76300 42400 45800 75200 105000 113000
2021-02-05 08:45 6.66 48000 121000 (2020) 38400 (2018) 76300 42400 45800 75200 105000 113000
2021-02-05 07:45 6.69 48200 121000 (2020) 38400 (2018) 76300 42400 45800 75200 105000 113000
2021-02-05 06:45 6.71 48300 121000 (2020) 38400 (2018) 76300 42400 45800 75200 105000 113000
2021-02-05 05:45 6.76 48500 121000 (2020) 38400 (2018) 76300 42400 45800 75200 105000 113000
2021-02-05 04:45 6.83 48900 121000 (2020) 38400 (2018) 76300 42400 45800 75200 105000 113000
2021-02-05 03:45 6.83 48900 121000 (2020) 38400 (2018) 76300 42400 45800 75200 105000 113000
2021-02-05 02:45 6.91 49300 121000 (2020) 38400 (2018) 76300 42400 45800 75200 105000 113000
2021-02-05 01:45 6.93 49400 121000 (2020) 38400 (2018) 76300 42400 45800 75200 105000 113000
2021-02-05 00:45 6.98 49700 121000 (2020) 38400 (2018) 76300 42400 45800 75200 105000 113000
2021-02-04 23:45 7.01 49800 109000 (2020) 39300 (2018) 69900 43300 46700 64500 97100 103000
2021-02-04 22:45 7.08 50200 109000 (2020) 39300 (2018) 69900 43300 46700 64500 97100 103000
2021-02-04 21:45 7.13 50400 109000 (2020) 39300 (2018) 69900 43300 46700 64500 97100 103000
2021-02-04 20:45 7.14 50500 109000 (2020) 39300 (2018) 69900 43300 46700 64500 97100 103000
2021-02-04 19:45 7.21 50900 109000 (2020) 39300 (2018) 69900 43300 46700 64500 97100 103000
2021-02-04 18:45 7.23 51000 109000 (2020) 39300 (2018) 69900 43300 46700 64500 97100 103000
2021-02-04 17:45 7.27 51200 109000 (2020) 39300 (2018) 69900 43300 46700 64500 97100 103000
2021-02-04 16:45 7.37 51700 109000 (2020) 39300 (2018) 69900 43300 46700 64500 97100 103000
2021-02-04 15:45 7.40 51900 109000 (2020) 39300 (2018) 69900 43300 46700 64500 97100 103000
2021-02-04 14:45 7.42 52000 109000 (2020) 39300 (2018) 69900 43300 46700 64500 97100 103000
2021-02-04 13:45 7.49 52300 109000 (2020) 39300 (2018) 69900 43300 46700 64500 97100 103000
2021-02-04 12:45 7.52 52500 109000 (2020) 39300 (2018) 69900 43300 46700 64500 97100 103000
2021-02-04 11:45 7.63 53100 109000 (2020) 39300 (2018) 69900 43300 46700 64500 97100 103000
2021-02-04 10:45 7.69 53400 109000 (2020) 39300 (2018) 69900 43300 46700 64500 97100 103000
2021-02-04 09:45 7.75 53800 109000 (2020) 39300 (2018) 69900 43300 46700 64500 97100 103000
2021-02-04 08:45 7.80 54000 109000 (2020) 39300 (2018) 69900 43300 46700 64500 97100 103000
2021-02-04 07:45 7.84 54300 109000 (2020) 39300 (2018) 69900 43300 46700 64500 97100 103000
2021-02-04 06:45 7.94 54800 109000 (2020) 39300 (2018) 69900 43300 46700 64500 97100 103000
2021-02-04 05:45 8.01 55200 109000 (2020) 39300 (2018) 69900 43300 46700 64500 97100 103000
2021-02-04 04:45 8.05 55400 109000 (2020) 39300 (2018) 69900 43300 46700 64500 97100 103000
2021-02-04 03:45 8.13 55900 109000 (2020) 39300 (2018) 69900 43300 46700 64500 97100 103000
2021-02-04 02:45 8.20 56300 109000 (2020) 39300 (2018) 69900 43300 46700 64500 97100 103000
2021-02-04 01:45 8.26 56600 109000 (2020) 39300 (2018) 69900 43300 46700 64500 97100 103000
2021-02-04 00:45 8.35 57100 109000 (2020) 39300 (2018) 69900 43300 46700 64500 97100 103000
2021-02-03 23:45 8.43 57600 97500 (2020) 40300 (2018) 64100 44100 47400 61400 80200 88300
2021-02-03 22:45 8.50 58000 97500 (2020) 40300 (2018) 64100 44100 47400 61400 80200 88300
2021-02-03 21:45 8.57 58400 97500 (2020) 40300 (2018) 64100 44100 47400 61400 80200 88300
2021-02-03 20:45 8.64 58800 97500 (2020) 40300 (2018) 64100 44100 47400 61400 80200 88300
2021-02-03 19:45 8.74 59400 97500 (2020) 40300 (2018) 64100 44100 47400 61400 80200 88300
2021-02-03 18:45 8.81 59800 97500 (2020) 40300 (2018) 64100 44100 47400 61400 80200 88300
2021-02-03 17:45 8.87 60200 97500 (2020) 40300 (2018) 64100 44100 47400 61400 80200 88300
2021-02-03 16:45 8.92 60500 97500 (2020) 40300 (2018) 64100 44100 47400 61400 80200 88300
2021-02-03 15:45 9.01 61000 97500 (2020) 40300 (2018) 64100 44100 47400 61400 80200 88300
2021-02-03 14:45 9.09 61500 97500 (2020) 40300 (2018) 64100 44100 47400 61400 80200 88300
2021-02-03 13:45 9.16 61900 97500 (2020) 40300 (2018) 64100 44100 47400 61400 80200 88300
2021-02-03 12:45 9.25 62500 97500 (2020) 40300 (2018) 64100 44100 47400 61400 80200 88300
2021-02-03 11:45 9.35 63100 97500 (2020) 40300 (2018) 64100 44100 47400 61400 80200 88300
2021-02-03 10:45 9.43 63600 97500 (2020) 40300 (2018) 64100 44100 47400 61400 80200 88300
2021-02-03 09:45 9.44 63700 97500 (2020) 40300 (2018) 64100 44100 47400 61400 80200 88300
2021-02-03 08:45 9.56 64400 97500 (2020) 40300 (2018) 64100 44100 47400 61400 80200 88300
2021-02-03 07:45 9.62 64800 97500 (2020) 40300 (2018) 64100 44100 47400 61400 80200 88300
2021-02-03 06:45 9.70 65300 97500 (2020) 40300 (2018) 64100 44100 47400 61400 80200 88300
2021-02-03 05:45 9.79 65900 97500 (2020) 40300 (2018) 64100 44100 47400 61400 80200 88300
2021-02-03 04:45 9.85 66300 97500 (2020) 40300 (2018) 64100 44100 47400 61400 80200 88300
2021-02-03 03:45 9.91 66700 97500 (2020) 40300 (2018) 64100 44100 47400 61400 80200 88300
2021-02-03 02:45 9.98 67100 97500 (2020) 40300 (2018) 64100 44100 47400 61400 80200 88300
2021-02-03 01:45 10.03 67500 97500 (2020) 40300 (2018) 64100 44100 47400 61400 80200 88300
2021-02-03 00:45 10.10 67900 97500 (2020) 40300 (2018) 64100 44100 47400 61400 80200 88300
2021-02-02 23:45 10.12 68100 89800 (2020) 40600 (2018) 61800 44200 47400 59600 76000 82400
2021-02-02 22:45 10.23 68800 89800 (2020) 40600 (2018) 61800 44200 47400 59600 76000 82400
2021-02-02 21:45 10.25 68900 89800 (2020) 40600 (2018) 61800 44200 47400 59600 76000 82400
2021-02-02 20:45 10.31 69300 89800 (2020) 40600 (2018) 61800 44200 47400 59600 76000 82400
2021-02-02 19:45 10.34 69500 89800 (2020) 40600 (2018) 61800 44200 47400 59600 76000 82400
2021-02-02 18:45 10.38 69800 89800 (2020) 40600 (2018) 61800 44200 47400 59600 76000 82400
2021-02-02 17:45 10.42 70100 89800 (2020) 40600 (2018) 61800 44200 47400 59600 76000 82400
2021-02-02 16:45 10.45 70300 89800 (2020) 40600 (2018) 61800 44200 47400 59600 76000 82400
2021-02-02 15:45 10.45 70300 89800 (2020) 40600 (2018) 61800 44200 47400 59600 76000 82400
2021-02-02 14:45 10.49 70500 89800 (2020) 40600 (2018) 61800 44200 47400 59600 76000 82400
2021-02-02 13:45 10.51 70700 89800 (2020) 40600 (2018) 61800 44200 47400 59600 76000 82400
2021-02-02 12:45 10.53 70800 89800 (2020) 40600 (2018) 61800 44200 47400 59600 76000 82400
2021-02-02 11:45 10.50 70600 89800 (2020) 40600 (2018) 61800 44200 47400 59600 76000 82400
2021-02-02 10:45 10.53 70800 89800 (2020) 40600 (2018) 61800 44200 47400 59600 76000 82400
2021-02-02 09:45 10.54 70900 89800 (2020) 40600 (2018) 61800 44200 47400 59600 76000 82400
2021-02-02 08:45 10.48 70500 89800 (2020) 40600 (2018) 61800 44200 47400 59600 76000 82400
2021-02-02 07:45 10.47 70400 89800 (2020) 40600 (2018) 61800 44200 47400 59600 76000 82400
2021-02-02 06:45 10.45 70300 89800 (2020) 40600 (2018) 61800 44200 47400 59600 76000 82400
2021-02-02 05:45 10.44 70200 89800 (2020) 40600 (2018) 61800 44200 47400 59600 76000 82400
2021-02-02 04:45 10.40 69900 89800 (2020) 40600 (2018) 61800 44200 47400 59600 76000 82400
2021-02-02 03:45 10.33 69500 89800 (2020) 40600 (2018) 61800 44200 47400 59600 76000 82400
2021-02-02 02:45 10.29 69200 89800 (2020) 40600 (2018) 61800 44200 47400 59600 76000 82400
2021-02-02 01:45 10.20 68600 89800 (2020) 40600 (2018) 61800 44200 47400 59600 76000 82400
2021-02-02 00:45 10.14 68200 89800 (2020) 40600 (2018) 61800 44200 47400 59600 76000 82400
2021-02-01 23:45 10.06 67700 85300 (2020) 40300 (2018) 60700 42200 43900 59300 77600 81200
2021-02-01 22:45 9.93 66800 85300 (2020) 40300 (2018) 60700 42200 43900 59300 77600 81200
2021-02-01 21:45 9.86 66400 85300 (2020) 40300 (2018) 60700 42200 43900 59300 77600 81200
2021-02-01 20:45 9.74 65600 85300 (2020) 40300 (2018) 60700 42200 43900 59300 77600 81200
2021-02-01 19:45 9.57 64500 85300 (2020) 40300 (2018) 60700 42200 43900 59300 77600 81200
2021-02-01 18:45 9.49 64000 85300 (2020) 40300 (2018) 60700 42200 43900 59300 77600 81200
2021-02-01 17:45 9.36 63200 85300 (2020) 40300 (2018) 60700 42200 43900 59300 77600 81200
2021-02-01 16:45 9.26 62600 85300 (2020) 40300 (2018) 60700 42200 43900 59300 77600 81200
2021-02-01 15:45 9.16 61900 85300 (2020) 40300 (2018) 60700 42200 43900 59300 77600 81200
2021-02-01 14:45 8.99 60900 85300 (2020) 40300 (2018) 60700 42200 43900 59300 77600 81200
2021-02-01 13:45 8.89 60300 85300 (2020) 40300 (2018) 60700 42200 43900 59300 77600 81200
2021-02-01 12:45 8.76 59500 85300 (2020) 40300 (2018) 60700 42200 43900 59300 77600 81200
2021-02-01 11:45 8.65 58900 85300 (2020) 40300 (2018) 60700 42200 43900 59300 77600 81200
2021-02-01 10:45 8.56 58300 85300 (2020) 40300 (2018) 60700 42200 43900 59300 77600 81200
2021-02-01 09:45 8.45 57700 85300 (2020) 40300 (2018) 60700 42200 43900 59300 77600 81200
2021-02-01 08:45 8.33 57000 85300 (2020) 40300 (2018) 60700 42200 43900 59300 77600 81200
2021-02-01 07:45 8.22 56400 85300 (2020) 40300 (2018) 60700 42200 43900 59300 77600 81200
2021-02-01 06:45 8.16 56000 85300 (2020) 40300 (2018) 60700 42200 43900 59300 77600 81200
2021-02-01 05:45 8.04 55400 85300 (2020) 40300 (2018) 60700 42200 43900 59300 77600 81200
2021-02-01 04:45 7.96 54900 85300 (2020) 40300 (2018) 60700 42200 43900 59300 77600 81200
2021-02-01 03:45 7.89 54500 85300 (2020) 40300 (2018) 60700 42200 43900 59300 77600 81200
2021-02-01 02:45 7.78 53900 85300 (2020) 40300 (2018) 60700 42200 43900 59300 77600 81200
2021-02-01 01:45 7.72 53600 85300 (2020) 40300 (2018) 60700 42200 43900 59300 77600 81200
2021-02-01 00:45 7.56 52700 85300 (2020) 40300 (2018) 60700 42200 43900 59300 77600 81200

A total of 715 rows are displayed for years 2015 through 2020.